If you wish to contribute or participate in the discussions about articles you are invited to join SKYbrary as a registered user

 Actions

Bob Baker Memorial Airport

From SKYbrary Wiki

PAIK
Airport
ICAO: PAIK – IATA: IAN
Summary
Name Bob Baker Memorial Airport
Region North America
Territory Alaska US.gif
Location , Alaska
Serving Kiana
Elevation 50.597 m
166 ft
166 ft50.597 m
Type medium airport
Coordinates 66° 58' 33.00" N, 160° 26' 12.00" W
Runways
Designator Length Width Surface ROPS
6/24 1036 m3,398.95 ft
30 m98.425 ft
GVL /


METAR
Observation PAIK 202021Z AUTO 21006KT 2SM -SN BKN026 OVC030 M08/M12 A2982 RMK AO2 VIS 1 1/2V3 P0000 FZRANO
Station Kinana / Bob Baker Me
Date/Time 20 April 2019 20:21:00
Wind direction 210°
Wind speed 06 kts
Lowest cloud amount broken clouds
Temperature
Dew point
Humidity 72%
QNH hPa
Weather condition light snow